createdAt,value
2022-08-11T03:42:47.743Z,100.00
2022-08-11T03:45:23.859Z,100.00
2022-08-11T03:48:14.187Z,100.00
2022-08-11T03:50:58.103Z,100.00
2022-08-11T03:53:44.397Z,100.00
2022-08-11T03:56:47.694Z,100.00
2022-08-11T04:00:11.744Z,100.00
2022-08-11T04:03:01.057Z,100.00
2022-08-11T04:06:10.893Z,100.00
2022-08-11T04:09:17.099Z,100.00
2022-08-11T04:12:08.392Z,100.00
2022-08-11T04:15:21.672Z,100.00
2022-08-11T04:18:19.975Z,100.00
2022-08-11T04:21:03.138Z,100.00
2022-08-11T04:24:34.688Z,100.00
2022-08-11T04:27:35.374Z,100.00
2022-08-11T04:30:12.278Z,100.00
2022-08-11T04:33:17.943Z,100.00
2022-08-11T04:35:59.639Z,100.00
2022-08-11T04:38:50.964Z,100.00
2022-08-11T04:41:51.358Z,100.00
2022-08-11T04:45:02.558Z,100.00
2022-08-11T04:47:58.151Z,100.00
2022-08-11T04:51:08.754Z,100.00
2022-08-11T04:53:54.743Z,100.00
2022-08-11T04:56:25.959Z,100.00
2022-08-11T04:59:31.389Z,100.00
2022-08-11T05:02:34.427Z,100.00
2022-08-11T05:05:15.712Z,100.00
2022-08-11T05:08:39.964Z,100.00
2022-08-11T05:11:28.814Z,100.00
2022-08-11T05:14:24.895Z,100.00
2022-08-11T05:16:57.030Z,100.00
2022-08-11T05:19:24.945Z,100.00
2022-08-11T05:21:57.268Z,100.00
2022-08-11T05:24:31.483Z,100.00
2022-08-11T05:27:09.956Z,100.00
2022-08-11T05:29:44.897Z,100.00
2022-08-11T05:32:17.661Z,100.00
2022-08-11T05:34:48.229Z,100.00
2022-08-11T05:37:27.453Z,100.00
2022-08-11T05:40:01.376Z,100.00
2022-08-11T05:42:32.587Z,100.00
2022-08-11T05:45:05.213Z,99.64
2022-08-11T05:47:48.728Z,98.39
2022-08-11T05:50:19.048Z,99.24
2022-08-11T05:53:00.262Z,98.88
2022-08-11T05:55:34.021Z,99.71
2022-08-11T05:58:06.026Z,98.53
2022-08-11T06:00:43.656Z,97.77
2022-08-11T06:03:12.536Z,96.43
2022-08-11T06:05:44.078Z,94.26
2022-08-11T06:08:14.010Z,94.13
2022-08-11T06:10:44.763Z,92.65
2022-08-11T06:13:18.346Z,92.09
2022-08-11T06:15:48.337Z,92.18
2022-08-11T06:18:16.946Z,90.85
2022-08-11T06:20:47.909Z,90.20
2022-08-11T06:23:17.649Z,90.88
2022-08-11T06:25:46.407Z,91.21
2022-08-11T06:28:20.770Z,91.50
2022-08-11T06:30:49.532Z,89.58
2022-08-11T06:33:29.829Z,90.40
2022-08-11T06:36:03.602Z,89.07
2022-08-11T06:38:49.771Z,90.18
2022-08-11T06:41:21.550Z,90.38
2022-08-11T06:43:55.564Z,90.11
2022-08-11T06:46:28.894Z,90.68
2022-08-11T06:48:58.132Z,90.97
2022-08-11T06:51:28.173Z,89.14
2022-08-11T06:54:04.829Z,88.49
2022-08-11T06:56:37.330Z,89.51
2022-08-11T06:59:07.831Z,88.04
2022-08-11T07:01:44.485Z,87.24
2022-08-11T07:04:21.088Z,87.45
2022-08-11T07:07:11.568Z,87.48
2022-08-11T07:10:24.235Z,87.01
2022-08-11T07:19:43.168Z,85.19
2022-08-11T07:22:12.808Z,85.26
2022-08-11T07:25:01.697Z,86.22
2022-08-11T07:27:37.686Z,86.78
2022-08-11T07:30:08.581Z,87.06
2022-08-11T07:32:43.987Z,86.24
2022-08-11T07:35:17.675Z,87.35
2022-08-11T10:14:31.821Z,82.46
2022-08-11T10:16:49.542Z,82.47
2022-08-11T10:19:19.308Z,81.98
2022-08-11T10:21:51.150Z,81.14
2022-08-11T10:24:18.772Z,81.25
2022-08-11T10:26:48.831Z,80.27
2022-08-11T10:29:18.912Z,80.75
2022-08-11T10:31:59.333Z,80.93
2022-08-11T10:34:30.045Z,82.15
2022-08-11T10:36:59.683Z,80.85
2022-08-11T10:39:27.376Z,82.04
2022-08-11T10:42:06.861Z,83.27
2022-08-11T10:44:40.901Z,86.34
2022-08-11T11:03:22.171Z,82.21
2022-08-11T11:06:13.282Z,83.35
2022-08-11T11:11:21.948Z,82.66
2022-08-11T11:13:53.293Z,81.91
2022-08-11T11:16:24.898Z,82.65
2022-08-11T11:19:01.243Z,81.73
2022-08-11T11:21:29.595Z,82.20
2022-08-11T11:24:13.433Z,84.88
2022-08-11T11:26:51.489Z,83.34
2022-08-11T11:29:55.170Z,82.56
2022-08-11T11:32:32.353Z,83.19
2022-08-11T11:35:24.919Z,83.48
2022-08-11T11:37:56.110Z,82.93
2022-08-11T11:40:33.403Z,83.91
2022-08-11T11:43:01.585Z,83.57
2022-08-11T11:45:29.633Z,85.13
2022-08-11T11:47:59.842Z,83.04
2022-08-11T11:50:32.888Z,85.70
2022-08-11T11:53:03.913Z,85.38
2022-08-11T11:55:32.889Z,85.65
2022-08-11T11:58:02.826Z,89.48
2022-08-11T12:00:33.260Z,90.71
2022-08-11T12:03:05.023Z,89.77
2022-08-11T12:05:36.475Z,91.45
2022-08-11T12:08:13.056Z,96.06
2022-08-11T12:10:45.216Z,100.00
2022-08-11T12:13:14.613Z,100.00
2022-08-11T12:16:31.050Z,100.00
2022-08-11T12:18:34.790Z,100.00
2022-08-11T12:21:05.283Z,100.00
2022-08-11T12:23:35.467Z,100.00
2022-08-11T12:26:27.304Z,100.00
2022-08-11T12:28:55.941Z,100.00
2022-08-11T12:31:23.763Z,100.00
2022-08-11T12:33:51.422Z,100.00
2022-08-11T12:36:21.411Z,100.00
2022-08-11T12:38:51.927Z,100.00
2022-08-11T12:41:21.557Z,100.00
2022-08-11T12:43:56.316Z,100.00
2022-08-11T12:46:31.630Z,100.00
2022-08-11T12:49:06.831Z,100.00
2022-08-11T12:52:11.654Z,100.00
2022-08-11T12:54:33.969Z,100.00
2022-08-11T12:57:05.843Z,100.00
2022-08-11T12:59:35.200Z,100.00
2022-08-11T13:02:03.350Z,100.00
2022-08-11T13:04:32.326Z,100.00
2022-08-11T13:07:01.628Z,100.00
2022-08-11T13:09:31.220Z,100.00
2022-08-11T13:11:59.170Z,100.00
2022-08-11T13:14:28.128Z,100.00
2022-08-11T13:16:56.003Z,100.00
2022-08-11T13:19:25.268Z,100.00
2022-08-11T13:21:53.545Z,100.00
2022-08-11T13:24:23.454Z,100.00
2022-08-11T13:26:52.245Z,100.00
2022-08-11T13:29:21.436Z,100.00
2022-08-11T13:31:50.826Z,100.00
2022-08-11T13:34:20.582Z,98.42
2022-08-11T13:36:50.574Z,97.71
2022-08-11T13:39:18.696Z,97.62
2022-08-11T13:41:49.575Z,96.83
2022-08-11T13:44:23.233Z,97.07
2022-08-11T13:46:56.373Z,97.55
2022-08-11T13:49:25.125Z,94.79
2022-08-11T13:51:54.280Z,95.79
2022-08-11T13:54:24.645Z,94.71
2022-08-11T13:56:56.504Z,96.05
2022-08-11T13:59:29.998Z,93.58
2022-08-11T14:02:20.287Z,94.16
2022-08-11T14:04:54.007Z,93.57
2022-08-11T14:07:24.683Z,94.41
2022-08-11T14:09:57.776Z,93.51
2022-08-11T14:12:31.445Z,93.49
2022-08-11T14:15:08.407Z,93.47
2022-08-11T14:17:48.341Z,93.48
2022-08-11T14:20:38.754Z,93.21
2022-08-11T14:23:13.115Z,93.06
2022-08-11T14:26:00.365Z,92.53
2022-08-11T14:28:37.347Z,92.68
2022-08-11T14:31:08.616Z,91.93
2022-08-11T14:33:59.949Z,91.60
2022-08-11T14:36:30.969Z,91.28
2022-08-11T14:39:01.225Z,91.74
2022-08-11T14:41:29.475Z,90.63
2022-08-11T14:44:12.884Z,91.40
2022-08-11T14:46:43.525Z,91.55
2022-08-11T14:49:12.828Z,91.49
2022-08-11T14:51:46.458Z,91.51
2022-08-11T14:54:16.087Z,92.02
2022-08-11T14:56:44.468Z,92.69
2022-08-11T14:59:14.046Z,92.05
2022-08-11T15:01:42.359Z,92.38
2022-08-11T15:04:35.030Z,92.25
2022-08-11T15:06:58.651Z,93.05
2022-08-11T15:09:26.863Z,92.70
2022-08-11T15:11:54.974Z,92.29
2022-08-11T15:14:24.969Z,91.86
2022-08-11T15:16:53.066Z,92.32
2022-08-11T15:19:21.581Z,91.11
2022-08-11T15:21:50.306Z,90.35
2022-08-11T15:24:18.044Z,90.40
2022-08-11T15:26:49.519Z,90.46
2022-08-11T15:29:23.618Z,90.10
2022-08-11T15:31:52.979Z,90.52
2022-08-11T15:34:25.715Z,90.02
2022-08-11T15:36:58.725Z,90.86
2022-08-11T15:39:32.679Z,90.81
2022-08-11T15:42:03.289Z,90.99
2022-08-11T15:45:01.132Z,90.13
2022-08-11T15:47:29.028Z,90.49
2022-08-11T15:50:11.701Z,91.03
2022-08-11T15:52:48.269Z,90.86
2022-08-11T15:55:17.269Z,91.34
2022-08-11T15:57:49.144Z,91.12
2022-08-11T16:00:17.833Z,91.10
2022-08-11T16:02:57.052Z,91.73
2022-08-11T16:05:45.542Z,92.00
2022-08-11T16:08:17.072Z,92.17
2022-08-11T16:10:54.455Z,91.96
2022-08-11T16:13:25.494Z,92.60
2022-08-11T16:15:55.898Z,92.67
2022-08-11T16:18:30.240Z,92.91
2022-08-11T16:20:58.688Z,93.32
2022-08-11T16:23:27.054Z,92.88
2022-08-11T16:27:02.759Z,92.94
2022-08-11T16:28:46.756Z,93.13
2022-08-11T16:31:15.602Z,93.12
2022-08-11T16:33:48.954Z,92.95
2022-08-11T16:36:23.544Z,93.08
2022-08-11T16:38:52.357Z,92.50
2022-08-11T16:41:22.988Z,93.29
2022-08-11T16:43:51.671Z,93.80
2022-08-11T16:46:22.044Z,93.76
2022-08-11T16:48:52.258Z,94.06
2022-08-11T16:51:21.145Z,93.74
2022-08-11T16:54:04.854Z,93.67
2022-08-11T16:56:37.595Z,93.99
2022-08-11T16:59:09.455Z,93.59
2022-08-11T17:01:38.727Z,93.60
2022-08-11T17:04:17.491Z,93.80
2022-08-11T17:06:49.552Z,93.91
2022-08-11T17:09:23.115Z,94.44
2022-08-11T17:11:56.379Z,94.36
2022-08-11T17:14:35.840Z,94.84
2022-08-11T17:17:07.546Z,94.98
2022-08-11T17:20:40.370Z,94.47
2022-08-11T17:22:30.739Z,95.31
2022-08-11T17:25:00.174Z,96.00
2022-08-11T17:27:30.188Z,96.39
2022-08-11T17:30:01.664Z,96.12
2022-08-11T17:32:33.195Z,96.26
2022-08-11T17:35:25.984Z,96.01
2022-08-11T17:37:56.036Z,95.33
2022-08-11T17:40:24.373Z,94.71
2022-08-11T17:42:53.965Z,93.63
2022-08-11T17:45:23.826Z,92.49
2022-08-11T17:47:51.600Z,91.90
2022-08-11T17:50:19.887Z,91.36
2022-08-11T17:52:49.584Z,91.12
2022-08-11T17:55:18.030Z,91.06
2022-08-11T17:58:06.575Z,89.87
2022-08-11T18:00:34.686Z,89.61
2022-08-11T18:03:05.308Z,89.58
2022-08-11T18:05:35.880Z,90.07
2022-08-11T18:08:08.240Z,90.38
2022-08-11T18:10:40.144Z,90.59
2022-08-11T18:13:08.944Z,91.08
2022-08-11T18:15:40.210Z,91.14
2022-08-11T18:18:17.677Z,91.13
2022-08-11T18:20:47.057Z,91.38
2022-08-11T18:23:19.457Z,91.47
2022-08-11T18:25:48.724Z,92.15
2022-08-11T18:28:24.427Z,91.61
2022-08-11T18:31:03.683Z,91.93
2022-08-11T18:34:03.806Z,92.42
2022-08-11T18:36:31.778Z,92.28
2022-08-11T18:39:03.237Z,92.67
2022-08-11T18:41:33.684Z,92.16
2022-08-11T18:44:06.071Z,92.32
2022-08-11T18:46:37.136Z,91.72
2022-08-11T18:49:14.950Z,91.51
2022-08-11T18:51:48.035Z,91.78
2022-08-11T18:54:20.727Z,91.65
2022-08-11T18:56:49.696Z,91.96
2022-08-11T18:59:20.396Z,91.92
2022-08-11T19:01:49.206Z,92.20
2022-08-11T19:04:19.958Z,92.42
2022-08-11T19:06:52.399Z,92.89
2022-08-11T19:09:22.110Z,93.29
2022-08-11T19:11:49.983Z,93.91
2022-08-11T19:14:21.011Z,94.22
2022-08-11T19:16:51.173Z,94.53
2022-08-11T19:19:20.493Z,94.89
2022-08-11T19:21:51.079Z,94.56
2022-08-11T19:24:19.771Z,94.64
2022-08-11T19:26:53.376Z,95.05
2022-08-11T19:30:04.718Z,95.11
2022-08-11T19:32:12.279Z,95.15
2022-08-11T19:34:40.940Z,95.32
2022-08-11T19:37:10.038Z,95.29
2022-08-11T19:39:38.709Z,93.84
2022-08-11T19:42:09.608Z,91.26
2022-08-11T19:44:38.291Z,91.92
2022-08-11T19:47:07.932Z,89.94
2022-08-11T19:49:36.906Z,89.26
2022-08-11T19:52:05.976Z,85.39
2022-08-11T19:54:36.043Z,84.82
2022-08-11T19:57:05.299Z,83.97
2022-08-11T19:59:34.837Z,83.46
2022-08-11T20:02:14.357Z,83.00
2022-08-11T20:04:42.596Z,83.91
2022-08-11T20:07:13.847Z,82.91
2022-08-11T20:10:05.951Z,83.67
2022-08-11T20:12:34.140Z,83.09
2022-08-11T20:15:06.546Z,83.19
2022-08-11T20:17:38.002Z,83.45
2022-08-11T20:20:07.691Z,83.32
2022-08-11T20:22:35.437Z,83.40
2022-08-11T20:25:05.380Z,83.61
2022-08-11T20:27:36.554Z,83.72
2022-08-11T20:30:07.055Z,83.75
2022-08-11T20:32:36.160Z,84.06
2022-08-11T20:35:05.863Z,84.30
2022-08-11T20:37:35.507Z,84.40
2022-08-11T20:40:04.506Z,84.37
2022-08-11T20:42:34.712Z,84.65
2022-08-11T20:45:03.873Z,84.60
2022-08-11T20:47:59.475Z,84.78
2022-08-11T20:50:26.210Z,84.94
2022-08-11T20:52:56.793Z,85.44
2022-08-11T20:55:46.382Z,85.65
2022-08-11T20:58:15.653Z,85.94
2022-08-11T21:00:48.966Z,86.65
2022-08-11T21:06:11.032Z,86.78
2022-08-11T21:08:41.809Z,87.39
2022-08-11T21:11:12.727Z,87.40
2022-08-11T21:13:43.448Z,87.75
2022-08-11T21:16:25.217Z,87.83
2022-08-11T21:19:02.954Z,88.13
2022-08-11T21:21:45.781Z,87.76
2022-08-11T21:24:18.563Z,88.41
2022-08-11T21:26:51.964Z,88.31
2022-08-11T21:29:21.201Z,88.34
2022-08-11T21:31:50.138Z,88.41
2022-08-11T21:34:21.412Z,88.55
2022-08-11T21:36:50.482Z,88.75
2022-08-11T21:39:22.893Z,89.17
2022-08-11T21:41:54.809Z,89.69
2022-08-11T21:44:23.461Z,90.08
2022-08-11T21:46:52.566Z,90.12
2022-08-11T21:49:24.360Z,90.57
2022-08-11T21:51:52.153Z,90.56
2022-08-11T21:54:21.077Z,91.53
2022-08-11T21:56:50.472Z,91.80
2022-08-11T21:59:23.684Z,92.48
2022-08-11T22:01:53.463Z,92.58
2022-08-11T22:04:23.362Z,92.75
2022-08-11T22:06:52.450Z,93.45
2022-08-11T22:09:20.668Z,93.46
2022-08-11T22:11:48.617Z,93.81
2022-08-11T22:14:37.092Z,94.03
2022-08-11T22:17:04.754Z,93.96
2022-08-11T22:19:35.948Z,94.19
2022-08-11T22:22:06.911Z,94.26
2022-08-11T22:24:36.537Z,93.83
2022-08-11T22:27:05.515Z,93.78
2022-08-11T22:32:19.657Z,93.64
2022-08-11T22:34:53.370Z,93.23
2022-08-11T22:37:27.426Z,93.33
2022-08-11T22:40:02.789Z,93.78
2022-08-11T22:42:33.277Z,94.23
2022-08-11T22:45:01.786Z,93.78
2022-08-11T22:47:36.403Z,94.16
2022-08-11T22:50:12.446Z,93.96
2022-08-11T22:52:41.596Z,93.77
2022-08-11T22:55:10.280Z,94.15
2022-08-11T22:57:39.371Z,94.34
2022-08-11T23:00:08.330Z,94.21
2022-08-11T23:02:37.745Z,94.52
2022-08-11T23:05:09.445Z,95.00
2022-08-11T23:07:51.242Z,95.38
2022-08-11T23:10:20.653Z,95.44
2022-08-11T23:12:49.250Z,95.72
2022-08-11T23:15:17.674Z,95.77
2022-08-11T23:17:45.822Z,95.47
2022-08-11T23:20:23.199Z,96.12
2022-08-11T23:22:53.674Z,96.61
2022-08-11T23:25:22.048Z,96.54
2022-08-11T23:27:49.987Z,96.88
2022-08-11T23:30:19.073Z,96.84
2022-08-11T23:32:49.124Z,97.39
2022-08-11T23:35:40.562Z,97.66
2022-08-11T23:38:07.269Z,97.75
2022-08-11T23:40:35.200Z,97.78
2022-08-11T23:43:03.595Z,98.16
2022-08-11T23:45:31.532Z,98.74
2022-08-11T23:48:01.799Z,99.12
2022-08-11T23:50:31.959Z,99.22
2022-08-11T23:53:00.328Z,99.60
2022-08-11T23:55:28.383Z,99.82
2022-08-11T23:57:56.608Z,100.00
